createdAt,value
2017-08-13T00:00:38.931Z,14.20
2017-08-13T00:03:42.597Z,14.20
2017-08-13T00:06:46.399Z,14.20
2017-08-13T00:09:50.133Z,14.30
2017-08-13T00:12:53.900Z,14.20
2017-08-13T00:15:57.688Z,14.10
2017-08-13T00:19:01.390Z,14.10
2017-08-13T00:22:05.198Z,14.10
2017-08-13T00:25:08.888Z,14.10
2017-08-13T00:28:12.648Z,14.10
2017-08-13T00:31:16.393Z,14.10
2017-08-13T00:34:20.154Z,14.20
2017-08-13T00:37:23.943Z,14.10
2017-08-13T00:40:27.627Z,14.10
2017-08-13T00:43:31.426Z,14.10
2017-08-13T00:46:35.108Z,14.00
2017-08-13T00:49:38.919Z,14.00
2017-08-13T00:52:42.241Z,14.10
2017-08-13T00:55:46.002Z,14.10
2017-08-13T00:58:49.798Z,14.00
2017-08-13T01:01:53.504Z,13.90
2017-08-13T01:04:57.321Z,14.00
2017-08-13T01:08:01.015Z,14.10
2017-08-13T01:11:04.784Z,14.00
2017-08-13T01:14:08.583Z,14.00
2017-08-13T01:17:12.332Z,14.00
2017-08-13T01:20:15.939Z,14.00
2017-08-13T01:23:19.613Z,14.10
2017-08-13T01:26:23.418Z,14.10
2017-08-13T01:29:27.191Z,14.10
2017-08-13T01:32:30.861Z,14.10
2017-08-13T01:35:34.782Z,14.10
2017-08-13T01:38:38.461Z,14.10
2017-08-13T01:41:42.266Z,14.10
2017-08-13T01:44:45.919Z,14.10
2017-08-13T01:47:49.697Z,14.00
2017-08-13T01:50:53.365Z,14.10
2017-08-13T01:53:57.139Z,14.20
2017-08-13T01:57:00.901Z,14.20
2017-08-13T02:00:04.411Z,14.30
2017-08-13T02:03:08.073Z,14.30
2017-08-13T02:06:11.856Z,14.30
2017-08-13T02:09:15.649Z,14.30
2017-08-13T02:12:19.440Z,14.30
2017-08-13T02:15:23.154Z,14.20
2017-08-13T02:18:26.951Z,14.20
2017-08-13T02:21:30.871Z,14.10
2017-08-13T02:24:34.545Z,14.10
2017-08-13T02:27:38.379Z,14.10
2017-08-13T02:30:42.064Z,14.10
2017-08-13T02:33:45.840Z,14.10
2017-08-13T02:36:49.532Z,14.00
2017-08-13T02:39:53.335Z,14.10
2017-08-13T02:42:57.014Z,14.10
2017-08-13T02:46:00.799Z,14.10
2017-08-13T02:49:04.459Z,14.10
2017-08-13T02:52:08.228Z,14.10
2017-08-13T02:55:11.918Z,14.20
2017-08-13T02:58:15.772Z,14.20
2017-08-13T03:01:19.525Z,14.20
2017-08-13T03:04:23.310Z,14.30
2017-08-13T03:07:26.665Z,14.20
2017-08-13T03:10:30.447Z,14.30
2017-08-13T03:13:34.257Z,14.30
2017-08-13T03:16:38.030Z,14.30
2017-08-13T03:19:41.820Z,14.30
2017-08-13T03:22:45.590Z,14.30
2017-08-13T03:25:49.267Z,14.30
2017-08-13T03:28:53.071Z,14.40
2017-08-13T03:31:56.416Z,14.40
2017-08-13T03:35:00.141Z,14.40
2017-08-13T03:38:03.869Z,14.40
2017-08-13T03:41:07.563Z,14.40
2017-08-13T03:44:11.325Z,14.40
2017-08-13T03:47:14.991Z,14.50
2017-08-13T03:50:18.714Z,14.50
2017-08-13T03:53:22.437Z,14.40
2017-08-13T03:56:26.119Z,14.40
2017-08-13T03:59:29.811Z,14.40
2017-08-13T04:02:33.503Z,14.50
2017-08-13T04:05:37.234Z,14.50
2017-08-13T04:08:40.982Z,14.50
2017-08-13T04:11:44.641Z,14.60
2017-08-13T04:14:48.357Z,14.60
2017-08-13T04:17:52.064Z,14.60
2017-08-13T04:20:55.743Z,14.60
2017-08-13T04:23:59.433Z,14.60
2017-08-13T04:27:03.131Z,14.60
2017-08-13T04:30:06.841Z,14.70
2017-08-13T04:33:10.574Z,14.70
2017-08-13T04:36:14.273Z,14.70
2017-08-13T04:39:18.092Z,14.70
2017-08-13T04:42:21.770Z,14.60
2017-08-13T04:45:25.504Z,14.70
2017-08-13T04:48:29.277Z,14.70
2017-08-13T04:51:32.943Z,14.70
2017-08-13T04:54:36.664Z,14.70
2017-08-13T04:57:40.319Z,14.80
2017-08-13T05:00:44.049Z,14.80
2017-08-13T05:03:48.366Z,14.80
2017-08-13T05:06:52.148Z,14.80
2017-08-13T05:09:55.846Z,14.90
2017-08-13T05:12:59.613Z,14.90
2017-08-13T05:16:03.351Z,14.90
2017-08-13T05:19:07.105Z,14.90
2017-08-13T05:22:10.854Z,14.90
2017-08-13T05:25:14.535Z,14.90
2017-08-13T05:28:18.313Z,15.00
2017-08-13T05:31:22.091Z,15.00
2017-08-13T05:34:25.849Z,15.00
2017-08-13T05:37:29.639Z,15.00
2017-08-13T05:40:33.446Z,15.00
2017-08-13T05:43:37.123Z,15.10
2017-08-13T05:46:40.895Z,15.10
2017-08-13T05:49:44.787Z,15.10
2017-08-13T05:52:48.586Z,15.10
2017-08-13T05:55:52.273Z,15.20
2017-08-13T05:58:56.541Z,15.20
2017-08-13T06:02:00.195Z,15.20
2017-08-13T06:05:04.030Z,15.20
2017-08-13T06:08:07.705Z,15.30
2017-08-13T06:11:11.479Z,15.30
2017-08-13T06:14:15.444Z,15.30
2017-08-13T06:17:19.245Z,15.30
2017-08-13T06:20:22.918Z,15.40
2017-08-13T06:23:26.716Z,15.40
2017-08-13T06:26:30.612Z,15.40
2017-08-13T06:29:34.349Z,15.40
2017-08-13T06:32:38.098Z,15.50
2017-08-13T06:35:41.854Z,15.50
2017-08-13T06:38:45.598Z,15.60
2017-08-13T06:41:49.334Z,15.60
2017-08-13T06:44:53.451Z,15.60
2017-08-13T06:47:57.244Z,15.70
2017-08-13T06:51:01.345Z,15.70
2017-08-13T06:54:06.102Z,15.70
2017-08-13T06:57:10.126Z,15.70
2017-08-13T07:00:13.884Z,15.70
2017-08-13T07:03:17.590Z,15.70
2017-08-13T07:06:21.297Z,15.70
2017-08-13T07:09:25.014Z,15.80
2017-08-13T07:12:28.816Z,15.80
2017-08-13T07:15:32.490Z,15.80
2017-08-13T07:18:36.318Z,15.80
2017-08-13T07:21:40.130Z,15.80
2017-08-13T07:24:43.800Z,15.80
2017-08-13T07:27:47.594Z,15.80
2017-08-13T07:30:51.821Z,15.80
2017-08-13T07:33:55.655Z,15.80
2017-08-13T07:36:59.425Z,15.90
2017-08-13T07:40:03.275Z,15.90
2017-08-13T07:43:06.960Z,15.90
2017-08-13T07:46:10.726Z,16.00
2017-08-13T07:49:14.389Z,16.00
2017-08-13T07:52:18.315Z,16.10
2017-08-13T07:55:22.064Z,16.10
2017-08-13T07:58:25.801Z,16.20
2017-08-13T08:01:29.547Z,16.30
2017-08-13T08:04:33.249Z,16.40
2017-08-13T08:07:36.999Z,16.40
2017-08-13T08:10:40.673Z,16.40
2017-08-13T08:13:45.198Z,16.40
2017-08-13T08:16:49.116Z,16.40
2017-08-13T08:19:52.986Z,16.40
2017-08-13T08:22:57.077Z,16.50
2017-08-13T08:26:00.871Z,16.50
2017-08-13T08:29:04.523Z,16.50
2017-08-13T08:32:08.317Z,16.60
2017-08-13T08:35:12.389Z,16.80
2017-08-13T08:38:16.058Z,16.80
2017-08-13T08:41:19.802Z,16.80
2017-08-13T08:44:23.549Z,16.90
2017-08-13T08:47:27.275Z,16.90
2017-08-13T08:50:31.159Z,17.00
2017-08-13T08:53:35.085Z,17.00
2017-08-13T08:56:38.903Z,17.10
2017-08-13T08:59:42.563Z,17.10
2017-08-13T09:02:46.459Z,17.20
2017-08-13T09:05:50.158Z,17.40
2017-08-13T09:08:54.150Z,17.60
2017-08-13T09:11:57.951Z,17.50
2017-08-13T09:15:01.786Z,17.50
2017-08-13T09:18:05.788Z,17.80
2017-08-13T09:21:09.863Z,17.80
2017-08-13T09:24:13.662Z,17.90
2017-08-13T09:27:17.515Z,18.10
2017-08-13T09:30:21.212Z,18.20
2017-08-13T09:33:25.007Z,18.40
2017-08-13T09:36:28.828Z,18.70
2017-08-13T09:39:32.383Z,18.80
2017-08-13T09:42:36.065Z,18.80
2017-08-13T09:45:39.849Z,19.00
2017-08-13T09:48:44.452Z,18.80
2017-08-13T09:51:48.917Z,18.60
2017-08-13T09:54:52.782Z,18.80
2017-08-13T09:58:02.110Z,18.90
2017-08-13T10:01:05.803Z,18.90
2017-08-13T10:04:09.613Z,18.70
2017-08-13T10:07:13.687Z,18.80
2017-08-13T10:10:17.651Z,18.70
2017-08-13T10:13:21.336Z,18.70
2017-08-13T10:16:25.426Z,18.90
2017-08-13T10:19:29.101Z,18.90
2017-08-13T10:22:32.924Z,18.80
2017-08-13T10:25:36.592Z,18.70
2017-08-13T10:28:40.383Z,18.70
2017-08-13T10:31:44.082Z,18.70
2017-08-13T10:34:48.140Z,18.70
2017-08-13T10:37:52.039Z,18.80
2017-08-13T10:40:56.005Z,18.80
2017-08-13T10:44:00.021Z,18.90
2017-08-13T10:47:03.818Z,18.80
2017-08-13T10:50:07.491Z,19.00
2017-08-13T10:53:11.283Z,19.00
2017-08-13T10:56:16.474Z,19.20
2017-08-13T10:59:20.502Z,19.30
2017-08-13T11:02:24.281Z,19.20
2017-08-13T11:05:28.063Z,19.30
2017-08-13T11:08:32.010Z,19.30
2017-08-13T11:11:35.948Z,19.70
2017-08-13T11:14:39.662Z,19.90
2017-08-13T11:17:43.497Z,20.00
2017-08-13T11:20:47.349Z,19.90
2017-08-13T11:23:51.133Z,19.70
2017-08-13T11:26:54.902Z,19.80
2017-08-13T11:29:58.698Z,20.10
2017-08-13T11:33:02.395Z,20.50
2017-08-13T11:36:06.269Z,20.20
2017-08-13T11:39:10.097Z,20.00
2017-08-13T11:42:14.146Z,20.10
2017-08-13T11:45:18.152Z,20.20
2017-08-13T11:48:22.034Z,20.80
2017-08-13T11:51:26.083Z,20.60
2017-08-13T11:54:29.973Z,20.10
2017-08-13T11:57:33.842Z,20.40
2017-08-13T12:00:37.857Z,20.40
2017-08-13T12:03:41.729Z,20.10
2017-08-13T12:06:45.813Z,19.90
2017-08-13T12:09:49.560Z,18.70
2017-08-13T12:12:53.619Z,18.30
2017-08-13T12:15:57.616Z,17.70
2017-08-13T12:19:01.456Z,17.50
2017-08-13T12:22:05.418Z,17.50
2017-08-13T12:25:09.478Z,17.10
2017-08-13T12:28:13.276Z,17.40
2017-08-13T12:31:17.014Z,17.20
2017-08-13T12:34:20.754Z,17.40
2017-08-13T12:37:24.524Z,17.10
2017-08-13T12:40:28.345Z,17.20
2017-08-13T12:43:32.024Z,17.20
2017-08-13T12:46:35.782Z,17.30
2017-08-13T12:49:39.742Z,17.00
2017-08-13T12:52:43.895Z,17.00
2017-08-13T12:55:47.318Z,17.00
2017-08-13T12:58:51.195Z,16.90
2017-08-13T13:01:54.953Z,17.00
2017-08-13T13:04:58.707Z,17.00
2017-08-13T13:08:02.519Z,16.90
2017-08-13T13:11:06.542Z,16.80
2017-08-13T13:14:10.384Z,17.00
2017-08-13T13:17:14.361Z,16.90
2017-08-13T13:20:18.087Z,16.90
2017-08-13T13:23:22.205Z,17.30
2017-08-13T13:26:26.017Z,17.40
2017-08-13T13:29:30.006Z,17.30
2017-08-13T13:32:33.775Z,17.40
2017-08-13T13:35:37.534Z,17.20
2017-08-13T13:38:41.233Z,17.20
2017-08-13T13:41:45.042Z,17.20
2017-08-13T13:44:48.715Z,17.30
2017-08-13T13:47:52.501Z,17.30
2017-08-13T13:50:56.296Z,17.40
2017-08-13T13:53:59.990Z,17.50
2017-08-13T13:57:03.804Z,17.50
2017-08-13T14:00:07.467Z,17.60
2017-08-13T14:03:11.254Z,17.70
2017-08-13T14:06:16.071Z,17.90
2017-08-13T14:09:19.836Z,18.00
2017-08-13T14:12:23.533Z,17.90
2017-08-13T14:15:27.374Z,17.90
2017-08-13T14:18:31.093Z,17.90
2017-08-13T14:21:34.678Z,17.90
2017-08-13T14:24:38.358Z,18.00
2017-08-13T14:27:42.270Z,18.00
2017-08-13T14:30:47.177Z,18.10
2017-08-13T14:33:51.352Z,18.10
2017-08-13T14:36:55.079Z,18.10
2017-08-13T14:39:58.823Z,18.10
2017-08-13T14:43:02.538Z,18.30
2017-08-13T14:46:06.777Z,18.20
2017-08-13T14:49:10.623Z,18.40
2017-08-13T14:52:14.304Z,18.30
2017-08-13T14:55:18.066Z,18.30
2017-08-13T14:58:21.756Z,18.40
2017-08-13T15:01:25.550Z,18.50
2017-08-13T15:04:29.248Z,18.50
2017-08-13T15:07:33.051Z,18.40
2017-08-13T15:10:36.829Z,18.60
2017-08-13T15:13:40.714Z,18.70
2017-08-13T15:16:44.518Z,18.80
2017-08-13T15:19:48.214Z,19.00
2017-08-13T15:22:52.760Z,19.20
2017-08-13T15:25:56.680Z,19.30
2017-08-13T15:29:00.394Z,19.20
2017-08-13T15:32:04.236Z,19.40
2017-08-13T15:35:08.317Z,19.50
2017-08-13T15:38:12.145Z,19.00
2017-08-13T15:41:16.151Z,19.20
2017-08-13T15:44:20.043Z,19.00
2017-08-13T15:47:23.988Z,18.80
2017-08-13T15:50:27.727Z,19.00
2017-08-13T15:53:31.955Z,19.20
2017-08-13T15:56:35.764Z,19.20
2017-08-13T15:59:39.664Z,19.30
2017-08-13T16:02:43.500Z,19.30
2017-08-13T16:05:49.349Z,19.20
2017-08-13T16:08:53.165Z,19.10
2017-08-13T16:11:57.032Z,19.20
2017-08-13T16:15:00.794Z,19.00
2017-08-13T16:18:04.472Z,19.10
2017-08-13T16:21:08.300Z,19.10
2017-08-13T16:24:12.098Z,19.00
2017-08-13T16:27:16.027Z,19.10
2017-08-13T16:30:19.728Z,19.00
2017-08-13T16:33:23.736Z,19.20
2017-08-13T16:36:27.490Z,19.20
2017-08-13T16:39:31.362Z,19.10
2017-08-13T16:42:35.244Z,19.10
2017-08-13T16:45:38.945Z,19.20
2017-08-13T16:48:48.854Z,19.20
2017-08-13T16:51:58.990Z,19.10
2017-08-13T16:55:10.012Z,19.10
2017-08-13T16:58:20.763Z,19.00
2017-08-13T17:01:31.282Z,19.00
2017-08-13T17:04:42.482Z,19.00
2017-08-13T17:07:52.616Z,19.00
2017-08-13T17:11:02.673Z,19.00
2017-08-13T17:14:13.438Z,19.10
2017-08-13T17:17:24.336Z,19.00
2017-08-13T17:20:35.442Z,19.00
2017-08-13T17:23:46.311Z,19.00
2017-08-13T17:26:56.745Z,19.00
2017-08-13T17:30:07.553Z,19.00
2017-08-13T17:33:17.933Z,19.00
2017-08-13T17:36:27.869Z,19.00
2017-08-13T17:39:38.511Z,18.90
2017-08-13T17:42:48.207Z,18.90
2017-08-13T17:45:58.130Z,18.90
2017-08-13T17:49:08.047Z,18.90
2017-08-13T17:52:18.752Z,18.80
2017-08-13T17:55:28.472Z,18.70
2017-08-13T17:58:38.384Z,18.70
2017-08-13T18:01:48.075Z,18.80
2017-08-13T18:04:59.179Z,18.80
2017-08-13T18:08:09.834Z,18.80
2017-08-13T18:11:19.613Z,18.90
2017-08-13T18:14:29.354Z,18.90
2017-08-13T18:17:39.247Z,18.90
2017-08-13T18:20:49.280Z,18.90
2017-08-13T18:23:59.076Z,19.00
2017-08-13T18:27:09.835Z,18.90
2017-08-13T18:30:19.571Z,18.90
2017-08-13T18:33:29.398Z,18.80
2017-08-13T18:36:39.155Z,18.70
2017-08-13T18:39:48.953Z,18.70
2017-08-13T18:42:59.477Z,18.70
2017-08-13T18:46:09.465Z,18.60
2017-08-13T18:49:19.417Z,18.30
2017-08-13T18:52:29.329Z,18.30
2017-08-13T18:55:39.098Z,18.30
2017-08-13T18:58:49.677Z,18.30
2017-08-13T19:01:59.547Z,18.20
2017-08-13T19:05:09.467Z,18.10
2017-08-13T19:08:19.356Z,18.00
2017-08-13T19:11:30.070Z,17.90
2017-08-13T19:14:39.572Z,17.90
2017-08-13T19:17:49.757Z,17.80
2017-08-13T19:20:59.782Z,17.80
2017-08-13T19:24:09.649Z,17.70
2017-08-13T19:27:19.467Z,17.60
2017-08-13T19:30:29.117Z,17.50
2017-08-13T19:33:39.119Z,17.10
2017-08-13T19:36:48.947Z,17.00
2017-08-13T19:39:58.957Z,16.90
2017-08-13T19:43:09.591Z,17.00
2017-08-13T19:46:19.554Z,17.00
2017-08-13T19:49:29.383Z,16.90
2017-08-13T19:52:39.419Z,17.00
2017-08-13T19:55:49.102Z,16.90
2017-08-13T19:58:59.130Z,16.90
2017-08-13T20:02:08.945Z,17.00
2017-08-13T20:05:18.734Z,16.90
2017-08-13T20:08:28.847Z,16.80
2017-08-13T20:11:38.871Z,16.90
2017-08-13T20:14:48.615Z,16.90
2017-08-13T20:17:58.537Z,17.00
2017-08-13T20:21:08.383Z,17.00
2017-08-13T20:24:18.074Z,16.90
2017-08-13T20:27:28.192Z,16.70
2017-08-13T20:30:38.803Z,16.80
2017-08-13T20:33:48.827Z,16.50
2017-08-13T20:36:58.755Z,16.60
2017-08-13T20:40:08.696Z,16.70
2017-08-13T20:43:18.438Z,16.70
2017-08-13T20:46:28.439Z,16.70
2017-08-13T20:49:38.354Z,16.80
2017-08-13T20:52:48.328Z,16.90
2017-08-13T20:55:59.119Z,16.80
2017-08-13T20:59:09.016Z,16.50
2017-08-13T21:02:18.940Z,16.40
2017-08-13T21:05:28.879Z,16.30
2017-08-13T21:08:38.693Z,16.20
2017-08-13T21:11:48.799Z,16.30
2017-08-13T21:14:58.897Z,16.40
2017-08-13T21:18:08.856Z,16.30
2017-08-13T21:21:18.642Z,16.30
2017-08-13T21:24:28.664Z,16.30
2017-08-13T21:27:38.476Z,16.20
2017-08-13T21:30:48.524Z,16.20
2017-08-13T21:33:58.599Z,16.10
2017-08-13T21:37:09.210Z,16.10
2017-08-13T21:40:19.284Z,16.10
2017-08-13T21:43:28.995Z,16.10
2017-08-13T21:46:38.897Z,16.10
2017-08-13T21:49:48.884Z,16.10
2017-08-13T21:52:58.784Z,16.10
2017-08-13T21:56:08.828Z,16.10
2017-08-13T21:59:18.628Z,16.00
2017-08-13T22:02:28.656Z,15.90
2017-08-13T22:05:38.317Z,15.70
2017-08-13T22:08:48.195Z,15.60
2017-08-13T22:11:58.006Z,15.70
2017-08-13T22:15:07.808Z,15.70
2017-08-13T22:18:17.656Z,15.70
2017-08-13T22:21:27.084Z,15.70
2017-08-13T22:24:37.332Z,15.60
2017-08-13T22:27:47.140Z,15.60
2017-08-13T22:30:57.379Z,15.50
2017-08-13T22:34:07.110Z,15.50
2017-08-13T22:37:17.262Z,15.60
2017-08-13T22:40:27.029Z,15.60
2017-08-13T22:43:37.034Z,15.60
2017-08-13T22:46:46.846Z,15.40
2017-08-13T22:49:56.746Z,15.50
2017-08-13T22:53:06.435Z,15.40
2017-08-13T22:56:16.248Z,15.40
2017-08-13T22:59:25.963Z,15.30
2017-08-13T23:02:35.879Z,15.40
2017-08-13T23:05:45.676Z,15.00
2017-08-13T23:08:55.562Z,15.00
2017-08-13T23:12:05.556Z,15.20
2017-08-13T23:15:15.512Z,14.80
2017-08-13T23:18:26.155Z,14.90
2017-08-13T23:21:36.262Z,14.80
2017-08-13T23:24:45.986Z,14.80
2017-08-13T23:27:55.968Z,15.00
2017-08-13T23:31:05.970Z,15.00
2017-08-13T23:34:15.884Z,15.00
2017-08-13T23:37:25.584Z,15.00
2017-08-13T23:40:35.495Z,15.00
2017-08-13T23:43:45.222Z,14.90
2017-08-13T23:46:55.208Z,15.00
2017-08-13T23:50:05.883Z,14.90
2017-08-13T23:53:16.043Z,14.80
2017-08-13T23:56:25.751Z,14.70
2017-08-13T23:59:35.782Z,14.40
